D/T METAR WX W/DIR W/SPE G/SPE TEMP DEWP
25/02/20 14:50 EGQS 251450Z 25010KT 9999 FEW018CB 05/01 Q0988 NOSIG RMK BLU BLU WSW (250°) 11.5mph 5°C 1°C
25/02/20 14:22 EGQS 251422Z 25011KT 9999 FEW018CB 06/01 Q0988 NOSIG RMK BLU BLU WSW (250°) 12.7mph 6°C 1°C
25/02/20 13:50 EGQS 251350Z 26011KT 9999 FEW018CB 05/01 Q0988 NOSIG RMK BLU BLU W (260°) 12.7mph 5°C 1°C
25/02/20 13:23 EGQS 251323Z 25010KT 9999 FEW018CB 05/01 Q0988 NOSIG RMK BLU BLU WSW (250°) 11.5mph 5°C 1°C
25/02/20 12:50 EGQS 251250Z 24011KT 9999 FEW018CB SCT240 05/02 Q0989 NOSIG RMK BLU BLU WSW (240°) 12.7mph 5°C 2°C
25/02/20 12:21 EGQS 251221Z 24009KT 9999 FEW018CB SCT240 05/01 Q0989 NOSIG RMK BLU BLU WSW (240°) 10.4mph 5°C 1°C
25/02/20 11:50 EGQS 251150Z 24011KT 9999 FEW018CB SCT240 04/01 Q0989 NOSIG RMK BLU BLU WSW (240°) 12.7mph 4°C 1°C
25/02/20 11:22 EGQS 251122Z 25011KT 9999 FEW018CB SCT240 04/01 Q0989 NOSIG RMK BLU BLU WSW (250°) 12.7mph 4°C 1°C
25/02/20 10:50 EGQS 251050Z 25008KT 9999 FEW008 BKN240 04/01 Q0990 NOSIG RMK BLU BLU WSW (250°) 9.2mph 4°C 1°C
25/02/20 10:21 EGQS 251021Z 23005KT 9999 FEW004 SCT090 BKN240 03/01 Q0990 NOSIG RMK BLU BLU SW (230°) 5.8mph 3°C 1°C
25/02/20 09:50 EGQS 250950Z 23003KT 9999 FEW001 BKN090 BKN240 01/00 Q0990 NOSIG RMK BLU BLU SW (230°) 3.5mph 1°C 0°C
25/02/20 09:25 EGQS 250925Z 20003KT 9999 FEW015 BKN090 BKN240 01/M00 Q0990 NOSIG RMK BLU BLU SSW (200°) 3.5mph 1°C 0°C
25/02/20 08:50 EGQS 250850Z 16002KT 9999 FEW030 SCT070 BKN240 00/M00 Q0991 NOSIG RMK BLU BLU SSE (160°) 2.3mph 0°C 0°C
25/02/20 08:23 EGQS 250823Z 00000KT 9999 FEW030 SCT070 M00/M01 Q0991 NOSIG RMK BLU BLU N (0°) 0°C -1°C
25/02/20 07:50 EGQS 250750Z 00000KT 9999 FEW030 SCT080 BKN250 M00/M01 Q0991 NOSIG RMK BLU BLU N (0°) 0°C -1°C
25/02/20 06:50 EGQS 250650Z 19004KT 9999 FEW030 SCT110 BKN250 M02/M02 Q0991 BLU NOSIG RMK BLU BLU S (190°) 4.6mph -2°C -2°C
25/02/20 05:50 EGQS 250550Z 16003KT CAVOK M00/M01 Q0992 RMK BLU SSE (160°) 3.5mph 0°C -1°C
25/02/20 04:50 EGQS 250450Z 24003KT 9999 FEW007 SCT022 BKN060 00/M00 Q0992 RMK WHT WSW (240°) 3.5mph 0°C 0°C
25/02/20 03:50 EGQS 250350Z 25008KT 9999 SCT018 BKN080 01/00 Q0993 RMK WHT WSW (250°) 9.2mph 1°C 0°C
25/02/20 02:50 EGQS 250250Z 24007KT 9999 FEW004 SCT016 BKN038 01/00 Q0994 RMK WHT WSW (240°) 8.1mph 1°C 0°C
25/02/20 01:50 EGQS 250150Z 24008KT 9999 BKN016 BKN034 01/01 Q0994 RMK WHT WSW (240°) 9.2mph 1°C 1°C
25/02/20 00:50 EGQS 250050Z 24006KT 9999 -RA SCT015 BKN042 02/01 Q0995 RMK WHT -RA WSW (240°) 6.9mph 2°C 1°C
24/02/20 23:50 EGQS 242350Z 22003KT 9999 -RA SCT017 BKN023 03/01 Q0995 RMK WHT -RA SW (220°) 3.5mph 3°C 1°C
24/02/20 22:50 EGQS 242250Z 06008KT 9999 -RA SCT016 SCT035 BKN050 04/01 Q0995 RMK WHT -RA ENE (60°) 9.2mph 4°C 1°C
24/02/20 21:50 EGQS 242150Z 07010KT 9999 -RA SCT014 BKN022 BKN080 04/01 Q0995 RERA RMK GRN -RA ENE (70°) 11.5mph 4°C 1°C
24/02/20 20:50 EGQS 242050Z 06010KT 9999 RA BKN011 BKN020 04/02 Q0995 RMK GRN RA ENE (60°) 11.5mph 4°C 2°C
24/02/20 19:50 EGQS 241950Z 06013KT 9999 -RA SCT011 BKN019 03/02 Q0995 RMK GRN -RA ENE (60°) 15.0mph 3°C 2°C
24/02/20 18:50 EGQS 241850Z 06014KT 9999 -RA BKN011 OVC019 03/02 Q0995 RMK GRN -RA ENE (60°) 16.1mph 3°C 2°C
24/02/20 17:50 EGQS 241750Z 07015KT 7000 RASN BKN012 OVC022 03/02 Q0995 RMK GRN RA SN ENE (70°) 17.3mph 3°C 2°C
24/02/20 16:50 EGQS 241650Z 08015KT 7000 RASN BKN009 OVC019 03/02 Q0996 NOSIG RMK GRN GRN RA SN E (80°) 17.3mph 3°C 2°C
24/02/20 16:20 EGQS 241620Z 08013KT 6000 -RASN FEW008 BKN010 03/02 Q0996 NOSIG RMK GRN GRN -RA -SN E (80°) 15.0mph 3°C 2°C
24/02/20 15:50 EGQS 241550Z 09013KT 9999 7000S -RASN FEW008 BKN010 03/02 Q0996 NOSIG RMK GRN GRN SN -RA E (90°) 15.0mph 3°C 2°C
24/02/20 15:20 EGQS 241520Z 08015KT 9999 -RASN FEW008 BKN012 03/02 Q0996 TEMPO 5000 RMK GRN TEMPO GRN -RA -SN E (80°) 17.3mph 3°C 2°C
24/02/20 14:50 EGQS 241450Z 09015KT 9999 -RASN FEW008 BKN012 03/01 Q0997 TEMPO 5000 RMK GRN TEMPO GRN -RA -SN E (90°) 17.3mph 3°C 1°C
24/02/20 14:22 EGQS 241422Z 09013KT 9999 -RASN FEW008 BKN010 03/02 Q0997 TEMPO 5000 RMK GRN TEMPO GRN -RA -SN E (90°) 15.0mph 3°C 2°C
24/02/20 13:50 EGQS 241350Z 09013KT 9999 -RASN FEW008 BKN010 03/02 Q0998 TEMPO 5000 RMK GRN TEMPO GRN -RA -SN E (90°) 15.0mph 3°C 2°C
24/02/20 13:20 EGQS 241320Z 10016KT 9999 -RASN BKN009 BKN029 03/01 Q0998 TEMPO 5000 RMK GRN TEMPO GRN -RA -SN E (100°) 18.4mph 3°C 1°C
24/02/20 12:50 EGQS 241250Z 09016KT 9999 -RASN BKN011 OVC036 03/01 Q0999 TEMPO 5000 RMK GRN TEMPO GRN -RA -SN E (90°) 18.4mph 3°C 1°C
24/02/20 12:44 EGQS 241244Z 09016KT 9999 -RASN SCT011 OVC036 03/01 Q0999 TEMPO 5000 RMK GRN TEMPO GRN -RA -SN E (90°) 18.4mph 3°C 1°C
24/02/20 11:50 EGQS 241150Z 11017KT 9999 -RA FEW010 SCT045 OVC060 04/M00 Q1001 TEMPO 5000 -RASN BKN015 RMK WHT TEMPO BLU -RA ESE (110°) 19.6mph 4°C 0°C
24/02/20 11:22 EGQS 241122Z 11014KT 9999 -RA FEW010 SCT030 OVC058 05/M01 Q1001 TEMPO SCT020 RMK BLU TEMPO WHT -RA ESE (110°) 16.1mph 5°C -1°C
24/02/20 10:50 EGQS 241050Z 09010KT 9999 FEW010 SCT040 OVC070 04/00 Q1002 NOSIG RMK BLU BLU E (90°) 11.5mph 4°C 0°C
24/02/20 10:22 EGQS 241022Z 09011KT 9999 FEW020 BKN070 05/M00 Q1003 BECMG BKN010 RMK BLU BECMG GRN E (90°) 12.7mph 5°C 0°C
24/02/20 09:50 EGQS 240950Z 09009KT 9999 FEW020 BKN060 OVC100 04/M01 Q1003 BECMG BKN010 RMK BLU BECMG GRN E (90°) 10.4mph 4°C -1°C
24/02/20 09:21 EGQS 240921Z 10008KT 9999 FEW020 SCT065 OVC100 04/M01 Q1004 NOSIG RMK BLU BLU E (100°) 9.2mph 4°C -1°C
24/02/20 08:50 EGQS 240850Z 09007KT 9999 FEW020 SCT070 OVC100 04/M01 Q1005 NOSIG RMK BLU BLU E (90°) 8.1mph 4°C -1°C
24/02/20 08:22 EGQS 240822Z 09006KT CAVOK 03/M02 Q1006 NOSIG RMK BLU BLU E (90°) 6.9mph 3°C -2°C
24/02/20 07:50 EGQS 240750Z 11006KT CAVOK 02/M02 Q1007 NOSIG RMK BLU BLU ESE (110°) 6.9mph 2°C -2°C